Time;durP1;ratioP1;P1;durP2;ratioP2;P2;SDS_P1;SDS_P2;PMS_P1;PMS_P2;Temp;Humidity;BMP_temperature;BMP_pressure;BME280_temperature;BME280_humidity;BME280_pressure;Samples;Min_cycle;Max_cycle;Signal;HPM_P1;HPM_P2
2023/06/01 00:01:41;;;;;;;5.95;3.40;;;;;;;;;;4984511;28;20137;-43
2023/06/01 00:04:07;;;;;;;3.80;3.50;;;;;;;;;;4984431;28;20447;-50
2023/06/01 00:06:33;;;;;;;6.05;3.88;;;;;;;;;;4983199;28;20042;-47
2023/06/01 00:08:58;;;;;;;4.35;3.42;;;;;;;;;;4982851;28;20494;-47
2023/06/01 00:11:25;;;;;;;4.03;3.53;;;;;;;;;;4981975;28;20046;-44
2023/06/01 00:13:50;;;;;;;5.72;3.28;;;;;;;;;;4986471;28;20093;-46
2023/06/01 00:16:16;;;;;;;4.00;3.47;;;;;;;;;;4986345;28;20046;-50
2023/06/01 00:18:41;;;;;;;3.20;2.95;;;;;;;;;;4985131;28;20030;-50
2023/06/01 00:21:06;;;;;;;3.30;3.00;;;;;;;;;;4986483;28;20080;-51
2023/06/01 00:23:33;;;;;;;3.80;3.22;;;;;;;;;;4981629;28;20094;-52
2023/06/01 00:25:59;;;;;;;5.28;2.90;;;;;;;;;;4986064;28;20039;-47
2023/06/01 00:28:25;;;;;;;3.72;2.95;;;;;;;;;;4984648;28;20399;-49
2023/06/01 00:30:51;;;;;;;5.20;3.25;;;;;;;;;;4983127;28;20049;-52
2023/06/01 00:33:17;;;;;;;3.10;2.70;;;;;;;;;;4986293;28;20033;-52
2023/06/01 00:35:42;;;;;;;3.22;2.95;;;;;;;;;;4982430;28;20050;-47
2023/06/01 00:38:07;;;;;;;4.63;3.65;;;;;;;;;;4985304;28;20026;-49
2023/06/01 00:40:34;;;;;;;8.98;3.20;;;;;;;;;;4982647;28;20088;-47
2023/06/01 00:43:00;;;;;;;4.20;3.10;;;;;;;;;;4984562;28;20041;-50
2023/06/01 00:45:25;;;;;;;3.22;3.03;;;;;;;;;;4984388;28;20042;-49
2023/06/01 00:47:51;;;;;;;3.13;2.90;;;;;;;;;;4984330;28;20029;-50
2023/06/01 00:50:16;;;;;;;4.70;3.15;;;;;;;;;;4982059;28;20048;-47
2023/06/01 00:52:42;;;;;;;3.42;2.85;;;;;;;;;;4979165;28;20411;-46
2023/06/01 00:55:09;;;;;;;6.53;3.78;;;;;;;;;;4982407;28;20053;-44
2023/06/01 00:57:35;;;;;;;3.00;2.63;;;;;;;;;;4982383;28;20062;-48
2023/06/01 01:00:09;;;;;;;3.22;2.45;;;;;;;;;;4983532;28;20456;-47
2023/06/01 01:02:39;;;;;;;3.67;2.67;;;;;;;;;;4980827;28;20117;-48
2023/06/01 01:05:09;;;;;;;3.50;3.20;;;;;;;;;;4983786;28;20038;-49
2023/06/01 01:07:44;;;;;;;2.97;2.78;;;;;;;;;;4983755;28;20034;-49
2023/06/01 01:10:33;;;;;;;3.03;2.53;;;;;;;;;;4982761;28;20038;-51
2023/06/01 01:13:10;;;;;;;2.92;2.28;;;;;;;;;;4981682;28;20058;-47
2023/06/01 01:15:35;;;;;;;2.80;2.60;;;;;;;;;;4983068;28;20080;-49
2023/06/01 01:18:17;;;;;;;2.83;2.55;;;;;;;;;;4981418;28;20051;-43
2023/06/01 01:20:44;;;;;;;2.93;2.53;;;;;;;;;;4984479;28;20064;-52
2023/06/01 01:23:33;;;;;;;3.40;2.67;;;;;;;;;;4981524;28;20821;-50
2023/06/01 01:26:31;;;;;;;2.60;2.40;;;;;;;;;;4984412;28;20042;-46
2023/06/01 01:29:08;;;;;;;3.05;2.85;;;;;;;;;;4983722;28;20046;-48
2023/06/01 01:31:34;;;;;;;8.13;2.80;;;;;;;;;;4981377;28;20431;-44
2023/06/01 01:34:02;;;;;;;4.45;2.80;;;;;;;;;;4981696;28;20041;-45
2023/06/01 01:36:29;;;;;;;3.45;2.60;;;;;;;;;;4984164;28;20137;-46
2023/06/01 01:38:54;;;;;;;4.65;2.92;;;;;;;;;;4984808;28;20073;-46
2023/06/01 01:41:21;;;;;;;3.20;2.45;;;;;;;;;;4983293;28;20112;-46
2023/06/01 01:43:48;;;;;;;4.75;2.28;;;;;;;;;;4981670;28;20023;-43
2023/06/01 01:46:25;;;;;;;2.58;2.42;;;;;;;;;;4984532;28;20053;-45
2023/06/01 01:49:23;;;;;;;2.67;2.42;;;;;;;;;;4982555;28;20031;-44
2023/06/01 01:52:01;;;;;;;2.53;2.33;;;;;;;;;;4983185;28;20054;-46
2023/06/01 01:54:27;;;;;;;2.55;2.35;;;;;;;;;;4984457;28;20061;-43
2023/06/01 01:56:57;;;;;;;2.88;2.67;;;;;;;;;;4981606;28;20410;-44
2023/06/01 01:59:23;;;;;;;3.72;2.65;;;;;;;;;;4983716;28;20030;-43
2023/06/01 02:01:48;;;;;;;2.80;2.53;;;;;;;;;;4983996;28;20081;-43
2023/06/01 02:04:14;;;;;;;3.25;2.50;;;;;;;;;;4983321;28;20297;-43
2023/06/01 02:06:39;;;;;;;2.53;2.33;;;;;;;;;;4983235;28;20026;-44
2023/06/01 02:09:06;;;;;;;3.38;3.08;;;;;;;;;;4980655;28;20646;-43
2023/06/01 02:11:35;;;;;;;3.17;2.42;;;;;;;;;;4981819;28;20053;-44
2023/06/01 02:14:01;;;;;;;2.92;2.63;;;;;;;;;;4979150;28;20022;-44
2023/06/01 02:16:26;;;;;;;2.50;2.30;;;;;;;;;;4978900;28;20683;-43
2023/06/01 02:18:52;;;;;;;2.78;2.47;;;;;;;;;;4981211;28;20065;-43
2023/06/01 02:21:17;;;;;;;2.58;2.38;;;;;;;;;;4982995;28;20118;-43
2023/06/01 02:23:43;;;;;;;3.63;2.33;;;;;;;;;;4984401;28;20030;-43
2023/06/01 02:26:10;;;;;;;2.60;2.40;;;;;;;;;;4981135;28;20500;-46
2023/06/01 02:28:40;;;;;;;3.85;2.58;;;;;;;;;;4982132;28;20031;-45
2023/06/01 02:31:06;;;;;;;2.63;2.42;;;;;;;;;;4981200;28;20096;-43
2023/06/01 02:33:32;;;;;;;4.30;2.53;;;;;;;;;;4981427;28;20105;-46
2023/06/01 02:35:58;;;;;;;8.25;2.70;;;;;;;;;;4987098;28;20038;-44
2023/06/01 02:38:23;;;;;;;7.35;2.70;;;;;;;;;;4987166;28;20033;-47
2023/06/01 02:40:49;;;;;;;4.63;2.60;;;;;;;;;;4984294;28;20066;-46
2023/06/01 02:43:14;;;;;;;3.05;2.38;;;;;;;;;;4985739;28;20026;-47
2023/06/01 02:45:39;;;;;;;2.30;2.10;;;;;;;;;;4985668;28;20476;-43
2023/06/01 02:48:05;;;;;;;2.50;2.30;;;;;;;;;;4989259;28;20030;-44
2023/06/01 02:50:30;;;;;;;5.50;3.17;;;;;;;;;;4985190;28;20038;-46
2023/06/01 02:52:56;;;;;;;3.67;2.50;;;;;;;;;;4986336;28;20031;-44
2023/06/01 02:55:21;;;;;;;4.50;3.00;;;;;;;;;;4983936;28;20034;-40
2023/06/01 02:57:46;;;;;;;2.60;2.40;;;;;;;;;;4984045;28;20637;-44
2023/06/01 03:00:15;;;;;;;2.88;2.67;;;;;;;;;;4987942;28;20511;-45
2023/06/01 03:02:47;;;;;;;2.60;2.40;;;;;;;;;;4985046;28;20151;-45
2023/06/01 03:05:14;;;;;;;;;;;;;;;;;;4986925;28;20052;-47
2023/06/01 03:07:40;;;;;;;5.00;2.55;;;;;;;;;;4983227;28;19922;-45
2023/06/01 03:10:06;;;;;;;3.38;2.65;;;;;;;;;;4986070;28;20034;-49
2023/06/01 03:12:32;;;;;;;4.15;2.65;;;;;;;;;;4983797;28;20060;-44
2023/06/01 03:14:57;;;;;;;4.93;3.25;;;;;;;;;;4982581;28;20573;-44
2023/06/01 03:17:23;;;;;;;5.60;2.80;;;;;;;;;;4983336;28;20034;-46
2023/06/01 03:19:48;;;;;;;7.75;2.55;;;;;;;;;;4985828;28;20054;-50
2023/06/01 03:22:13;;;;;;;2.88;2.40;;;;;;;;;;4982161;28;20047;-44
2023/06/01 03:24:41;;;;;;;4.47;2.78;;;;;;;;;;4984332;28;20026;-44
2023/06/01 03:27:07;;;;;;;2.92;2.65;;;;;;;;;;4987134;28;20038;-45
2023/06/01 03:29:32;;;;;;;6.55;2.40;;;;;;;;;;4985441;28;20106;-44
2023/06/01 03:31:57;;;;;;;5.80;2.65;;;;;;;;;;4981816;28;20043;-43
2023/06/01 03:34:23;;;;;;;2.92;2.65;;;;;;;;;;4985698;28;20090;-43
2023/06/01 03:36:48;;;;;;;3.22;2.90;;;;;;;;;;4986254;28;20035;-44
2023/06/01 03:39:15;;;;;;;3.13;2.72;;;;;;;;;;4983887;28;20039;-43
2023/06/01 03:41:42;;;;;;;3.10;2.80;;;;;;;;;;4983975;28;20045;-44
2023/06/01 03:44:08;;;;;;;5.38;2.78;;;;;;;;;;4984780;28;20058;-46
2023/06/01 03:46:34;;;;;;;3.15;2.65;;;;;;;;;;4983606;28;20070;-43
2023/06/01 03:48:59;;;;;;;2.58;2.38;;;;;;;;;;4981961;28;20037;-45
2023/06/01 03:51:25;;;;;;;5.88;2.60;;;;;;;;;;4986951;28;20042;-44
2023/06/01 03:53:51;;;;;;;3.33;2.80;;;;;;;;;;4983064;28;20022;-43
2023/06/01 03:56:17;;;;;;;3.30;2.45;;;;;;;;;;4982046;28;20047;-43
2023/06/01 03:58:42;;;;;;;3.22;2.92;;;;;;;;;;4984173;28;20379;-45
2023/06/01 04:01:10;;;;;;;6.82;2.85;;;;;;;;;;4985550;28;20081;-46
2023/06/01 04:03:36;;;;;;;3.15;2.85;;;;;;;;;;4987107;28;20121;-47
2023/06/01 04:06:01;;;;;;;4.07;2.70;;;;;;;;;;4982553;28;20129;-42
2023/06/01 04:08:27;;;;;;;3.35;2.88;;;;;;;;;;4980853;28;20859;-46
2023/06/01 04:10:52;;;;;;;3.15;2.92;;;;;;;;;;4984113;28;20046;-43
2023/06/01 04:13:18;;;;;;;4.50;2.60;;;;;;;;;;4984437;28;20038;-43
2023/06/01 04:15:45;;;;;;;7.63;2.90;;;;;;;;;;4983146;28;20048;-46
2023/06/01 04:18:10;;;;;;;3.17;2.70;;;;;;;;;;4985369;28;20499;-43
2023/06/01 04:20:35;;;;;;;2.78;2.58;;;;;;;;;;4980486;28;20085;-44
2023/06/01 04:23:01;;;;;;;5.40;2.88;;;;;;;;;;4984832;28;20085;-48
2023/06/01 04:25:28;;;;;;;3.28;2.78;;;;;;;;;;4982874;28;20284;-43
2023/06/01 04:27:54;;;;;;;3.15;2.85;;;;;;;;;;4986135;28;20046;-45
2023/06/01 04:30:20;;;;;;;4.05;2.75;;;;;;;;;;4988214;28;20049;-46
2023/06/01 04:32:47;;;;;;;3.00;2.80;;;;;;;;;;4985038;28;20043;-48
2023/06/01 04:35:13;;;;;;;3.65;2.92;;;;;;;;;;4979822;28;20031;-43
2023/06/01 04:37:40;;;;;;;5.70;2.58;;;;;;;;;;4981511;28;20053;-44
2023/06/01 04:40:08;;;;;;;3.63;2.55;;;;;;;;;;4982076;28;20092;-43
2023/06/01 04:42:34;;;;;;;7.88;2.90;;;;;;;;;;4985648;28;20038;-44
2023/06/01 04:45:04;;;;;;;3.95;2.88;;;;;;;;;;4979297;28;20022;-46
2023/06/01 04:47:31;;;;;;;4.45;2.90;;;;;;;;;;4983955;28;20105;-43
2023/06/01 04:49:56;;;;;;;3.88;2.92;;;;;;;;;;4976863;28;20048;-43
2023/06/01 04:52:22;;;;;;;6.82;3.20;;;;;;;;;;4977488;28;20042;-46
2023/06/01 04:54:48;;;;;;;8.35;2.80;;;;;;;;;;4983530;28;20134;-43
2023/06/01 04:57:13;;;;;;;7.40;2.55;;;;;;;;;;4983475;28;20125;-43
2023/06/01 04:59:40;;;;;;;3.25;2.88;;;;;;;;;;4979545;28;20069;-43
2023/06/01 05:02:06;;;;;;;6.15;2.67;;;;;;;;;;4979756;28;20049;-49
2023/06/01 05:04:31;;;;;;;6.03;2.58;;;;;;;;;;4985613;28;20023;-43
2023/06/01 05:06:57;;;;;;;3.28;2.63;;;;;;;;;;4983766;28;20070;-47
2023/06/01 05:09:22;;;;;;;3.72;2.90;;;;;;;;;;4983877;28;20330;-46
2023/06/01 05:11:48;;;;;;;2.83;2.63;;;;;;;;;;4983279;28;20045;-43
2023/06/01 05:14:13;;;;;;;5.43;2.70;;;;;;;;;;4981510;28;20657;-45
2023/06/01 05:16:38;;;;;;;19.65;3.55;;;;;;;;;;4981754;28;20057;-44
2023/06/01 05:19:04;;;;;;;3.78;3.05;;;;;;;;;;4981778;28;20536;-45
2023/06/01 05:21:31;;;;;;;2.72;2.53;;;;;;;;;;4978751;28;20042;-44
2023/06/01 05:23:57;;;;;;;9.32;3.30;;;;;;;;;;4979628;28;20030;-44
2023/06/01 05:26:22;;;;;;;2.78;2.58;;;;;;;;;;4981897;28;20093;-44
2023/06/01 05:28:47;;;;;;;4.95;2.85;;;;;;;;;;4990631;28;20032;-44
2023/06/01 05:31:13;;;;;;;4.38;2.90;;;;;;;;;;4980548;28;20039;-43
2023/06/01 05:33:38;;;;;;;10.13;3.00;;;;;;;;;;4977996;28;20026;-47
2023/06/01 05:36:04;;;;;;;6.05;3.03;;;;;;;;;;4978926;28;20376;-43
2023/06/01 05:38:29;;;;;;;4.05;3.13;;;;;;;;;;4977613;28;20061;-44
2023/06/01 05:40:55;;;;;;;3.97;2.72;;;;;;;;;;4976787;28;20039;-43
2023/06/01 05:43:20;;;;;;;17.50;3.78;;;;;;;;;;4981239;28;20031;-44
2023/06/01 05:45:46;;;;;;;3.40;2.95;;;;;;;;;;4975564;28;20101;-47
2023/06/01 05:48:13;;;;;;;5.90;3.72;;;;;;;;;;4978278;28;20069;-43
2023/06/01 05:50:40;;;;;;;5.63;2.85;;;;;;;;;;4979680;28;20039;-48
2023/06/01 05:53:05;;;;;;;3.45;2.60;;;;;;;;;;4973476;28;20474;-43
2023/06/01 05:55:31;;;;;;;2.83;2.63;;;;;;;;;;4976327;28;20046;-44
2023/06/01 05:57:56;;;;;;;4.75;2.78;;;;;;;;;;4983016;28;20085;-51
2023/06/01 06:00:22;;;;;;;5.10;3.15;;;;;;;;;;4985029;28;20062;-44
2023/06/01 06:02:47;;;;;;;4.80;2.63;;;;;;;;;;4985464;28;20113;-44
2023/06/01 06:05:13;;;;;;;3.60;2.72;;;;;;;;;;4981874;28;20057;-49
2023/06/01 06:07:38;;;;;;;9.38;3.00;;;;;;;;;;4977404;28;20045;-43
2023/06/01 06:10:04;;;;;;;3.80;2.83;;;;;;;;;;4979381;28;20121;-43
2023/06/01 06:12:30;;;;;;;2.95;2.70;;;;;;;;;;4976782;28;20470;-45
2023/06/01 06:14:55;;;;;;;3.08;2.78;;;;;;;;;;4975919;28;20117;-44
2023/06/01 06:17:21;;;;;;;4.90;2.78;;;;;;;;;;4981921;28;20053;-43
2023/06/01 06:19:48;;;;;;;3.63;2.88;;;;;;;;;;4980852;28;20687;-44
2023/06/01 06:22:14;;;;;;;4.40;2.47;;;;;;;;;;4984905;28;20045;-44
2023/06/01 06:24:39;;;;;;;4.95;2.83;;;;;;;;;;4983190;28;20019;-45
2023/06/01 06:27:05;;;;;;;2.70;2.50;;;;;;;;;;4989099;28;20042;-45
2023/06/01 06:29:31;;;;;;;7.18;2.70;;;;;;;;;;4983774;28;20534;-46
2023/06/01 06:31:57;;;;;;;8.57;2.58;;;;;;;;;;5007662;28;20125;-43
2023/06/01 06:34:22;;;;;;;5.95;3.10;;;;;;;;;;4984264;28;20040;-47
2023/06/01 06:36:47;;;;;;;4.55;2.90;;;;;;;;;;4987333;28;20395;-49
2023/06/01 06:39:13;;;;;;;3.03;2.53;;;;;;;;;;4987009;28;20854;-47
2023/06/01 06:41:42;;;;;;;5.25;2.47;;;;;;;;;;4979187;28;20081;-47
2023/06/01 06:44:08;;;;;;;4.90;2.88;;;;;;;;;;4985251;28;20026;-49
2023/06/01 06:46:34;;;;;;;7.70;2.97;;;;;;;;;;4983181;28;20380;-44
2023/06/01 06:48:59;;;;;;;3.88;3.08;;;;;;;;;;4986151;28;20030;-47
2023/06/01 06:51:25;;;;;;;8.88;2.72;;;;;;;;;;4985325;28;20046;-43
2023/06/01 06:53:50;;;;;;;2.80;2.60;;;;;;;;;;4984991;28;20093;-46
2023/06/01 06:56:16;;;;;;;3.33;2.65;;;;;;;;;;4981471;28;20051;-46
2023/06/01 06:58:42;;;;;;;3.17;2.92;;;;;;;;;;4985149;28;20059;-46
2023/06/01 07:01:07;;;;;;;5.60;2.65;;;;;;;;;;4985545;28;20503;-46
2023/06/01 07:03:32;;;;;;;6.43;2.58;;;;;;;;;;4985776;28;20028;-43
2023/06/01 07:05:58;;;;;;;2.83;2.63;;;;;;;;;;4985406;28;20061;-44
2023/06/01 07:08:23;;;;;;;3.20;2.90;;;;;;;;;;4988745;28;20110;-44
2023/06/01 07:10:49;;;;;;;3.03;2.83;;;;;;;;;;4984154;28;20129;-44
2023/06/01 07:13:14;;;;;;;2.92;2.67;;;;;;;;;;4979700;28;20031;-44
2023/06/01 07:15:40;;;;;;;4.22;3.10;;;;;;;;;;4982409;28;20488;-48
2023/06/01 07:18:06;;;;;;;4.93;3.13;;;;;;;;;;4980053;28;20081;-46
2023/06/01 07:20:31;;;;;;;3.80;2.95;;;;;;;;;;4988185;28;20046;-43
2023/06/01 07:22:59;;;;;;;10.35;2.90;;;;;;;;;;4984781;28;20051;-47
2023/06/01 07:25:24;;;;;;;5.28;2.72;;;;;;;;;;4986562;28;20026;-47
2023/06/01 07:27:50;;;;;;;4.35;2.90;;;;;;;;;;4984920;28;20042;-43
2023/06/01 07:30:16;;;;;;;2.97;2.67;;;;;;;;;;4984790;28;20038;-45
2023/06/01 07:32:42;;;;;;;6.05;2.58;;;;;;;;;;4983531;28;20035;-45
2023/06/01 07:35:08;;;;;;;3.72;2.80;;;;;;;;;;4986462;28;20034;-43
2023/06/01 07:37:33;;;;;;;6.80;2.90;;;;;;;;;;4983738;28;20044;-46
2023/06/01 07:39:59;;;;;;;3.65;2.97;;;;;;;;;;4984803;28;20069;-44
2023/06/01 07:42:24;;;;;;;3.35;3.10;;;;;;;;;;4987106;28;20089;-46
2023/06/01 07:44:50;;;;;;;3.22;2.95;;;;;;;;;;4985012;28;20038;-49
2023/06/01 07:47:16;;;;;;;8.75;3.60;;;;;;;;;;4985462;28;20392;-47
2023/06/01 07:49:41;;;;;;;9.80;3.47;;;;;;;;;;4982779;28;20081;-46
2023/06/01 07:52:07;;;;;;;9.77;3.50;;;;;;;;;;4982482;28;20047;-44
2023/06/01 07:54:35;;;;;;;4.10;3.00;;;;;;;;;;4985132;28;20523;-44
2023/06/01 07:57:01;;;;;;;3.75;3.00;;;;;;;;;;4982077;28;20155;-46
2023/06/01 07:59:27;;;;;;;3.88;3.03;;;;;;;;;;4982781;28;20746;-45
2023/06/01 08:01:54;;;;;;;9.30;2.97;;;;;;;;;;4985738;28;20047;-43
2023/06/01 08:04:22;;;;;;;3.58;3.13;;;;;;;;;;4986169;28;20385;-44
2023/06/01 08:06:52;;;;;;;4.07;3.53;;;;;;;;;;4984413;28;20034;-49
2023/06/01 08:09:21;;;;;;;7.57;3.50;;;;;;;;;;4981541;28;20038;-44
2023/06/01 08:11:48;;;;;;;3.42;3.13;;;;;;;;;;4980423;28;20065;-44
2023/06/01 08:14:13;;;;;;;3.53;3.22;;;;;;;;;;4984109;28;20026;-44
2023/06/01 08:16:39;;;;;;;3.90;3.50;;;;;;;;;;4985071;28;20038;-49
2023/06/01 08:19:04;;;;;;;4.28;3.70;;;;;;;;;;4986289;28;20042;-45
2023/06/01 08:21:30;;;;;;;4.10;3.33;;;;;;;;;;4983829;28;20047;-43
2023/06/01 08:23:55;;;;;;;4.57;3.45;;;;;;;;;;4984176;28;20030;-44
2023/06/01 08:26:22;;;;;;;4.90;3.78;;;;;;;;;;4982401;28;20039;-49
2023/06/01 08:28:51;;;;;;;4.80;3.80;;;;;;;;;;4988185;28;20062;-44
2023/06/01 08:31:22;;;;;;;6.28;3.75;;;;;;;;;;4982121;28;20042;-49
2023/06/01 08:33:49;;;;;;;5.60;3.78;;;;;;;;;;4986200;28;20116;-46
2023/06/01 08:36:15;;;;;;;5.82;4.07;;;;;;;;;;4983772;28;20658;-43
2023/06/01 08:38:41;;;;;;;4.65;4.22;;;;;;;;;;4981470;28;20032;-46
2023/06/01 08:41:36;;;;;;;6.55;3.90;;;;;;;;;;4983171;28;20191;-45
2023/06/01 08:44:07;;;;;;;6.28;4.20;;;;;;;;;;4984836;28;20029;-45
2023/06/01 08:46:34;;;;;;;4.65;3.78;;;;;;;;;;4984221;28;20039;-49
2023/06/01 08:49:00;;;;;;;4.38;3.47;;;;;;;;;;4984576;28;20042;-43
2023/06/01 08:51:25;;;;;;;5.97;3.88;;;;;;;;;;4983869;28;20038;-48
2023/06/01 08:53:53;;;;;;;6.22;4.32;;;;;;;;;;4983400;28;20153;-46
2023/06/01 08:56:21;;;;;;;3.78;3.47;;;;;;;;;;4982851;28;20125;-43
2023/06/01 08:58:47;;;;;;;5.00;4.30;;;;;;;;;;4980202;28;20502;-52
2023/06/01 09:01:21;;;;;;;7.28;3.90;;;;;;;;;;4982448;28;20500;-47
2023/06/01 09:03:48;;;;;;;6.80;4.32;;;;;;;;;;4985374;28;20110;-44
2023/06/01 09:06:14;;;;;;;5.03;4.05;;;;;;;;;;4985586;28;20427;-51
2023/06/01 09:08:39;;;;;;;6.90;4.03;;;;;;;;;;4983660;28;20068;-46
2023/06/01 09:11:05;;;;;;;5.35;3.90;;;;;;;;;;4983157;28;20414;-48
2023/06/01 09:13:36;;;;;;;5.63;4.03;;;;;;;;;;4983052;28;20041;-43
2023/06/01 09:16:02;;;;;;;5.82;4.00;;;;;;;;;;4983921;28;20038;-45
2023/06/01 09:18:27;;;;;;;11.80;4.50;;;;;;;;;;4984588;28;20372;-50
2023/06/01 09:20:54;;;;;;;5.13;3.95;;;;;;;;;;4982620;28;20035;-47
2023/06/01 09:23:26;;;;;;;6.10;4.25;;;;;;;;;;4982483;28;20060;-48
2023/06/01 09:26:08;;;;;;;5.88;4.00;;;;;;;;;;4984611;28;20104;-46
2023/06/01 09:28:55;;;;;;;4.40;3.30;;;;;;;;;;4982359;28;20035;-53
2023/06/01 09:31:39;;;;;;;4.22;3.80;;;;;;;;;;4981861;28;20372;-49
2023/06/01 09:34:06;;;;;;;7.65;3.95;;;;;;;;;;4981119;28;20080;-44
2023/06/01 09:36:33;;;;;;;6.97;4.07;;;;;;;;;;4979188;28;20042;-52
2023/06/01 09:39:06;;;;;;;4.53;4.00;;;;;;;;;;4982966;28;20030;-47
2023/06/01 09:41:48;;;;;;;4.40;4.00;;;;;;;;;;4982933;28;20042;-47
2023/06/01 09:44:22;;;;;;;13.93;4.07;;;;;;;;;;4984248;28;20032;-50
2023/06/01 09:46:49;;;;;;;8.18;4.28;;;;;;;;;;4982996;28;20133;-50
2023/06/01 09:49:26;;;;;;;8.70;4.72;;;;;;;;;;4984613;28;20027;-44
2023/06/01 09:52:14;;;;;;;6.82;4.25;;;;;;;;;;4983051;28;20038;-46
2023/06/01 09:54:42;;;;;;;4.15;3.63;;;;;;;;;;4984511;28;20084;-44
2023/06/01 09:57:10;;;;;;;6.85;3.90;;;;;;;;;;4980741;28;20038;-48
2023/06/01 09:59:43;;;;;;;7.70;4.00;;;;;;;;;;4979072;28;20035;-52
2023/06/01 10:02:15;;;;;;;6.63;4.10;;;;;;;;;;4984470;28;20129;-49
2023/06/01 10:04:49;;;;;;;5.55;3.88;;;;;;;;;;4983026;28;20034;-44
2023/06/01 10:07:16;;;;;;;8.65;4.28;;;;;;;;;;4982591;28;20503;-50
2023/06/01 10:09:43;;;;;;;4.65;3.92;;;;;;;;;;4982443;28;20062;-49
2023/06/01 10:12:09;;;;;;;5.47;4.30;;;;;;;;;;4981711;28;20039;-51
2023/06/01 10:14:38;;;;;;;6.57;4.10;;;;;;;;;;4984914;28;20014;-51
2023/06/01 10:17:05;;;;;;;6.32;4.10;;;;;;;;;;4981760;28;20046;-49
2023/06/01 10:19:30;;;;;;;4.78;3.25;;;;;;;;;;4981899;28;20084;-48
2023/06/01 10:21:59;;;;;;;6.28;4.07;;;;;;;;;;4979160;28;20463;-45
2023/06/01 10:24:26;;;;;;;3.70;3.40;;;;;;;;;;4980427;28;20042;-47
2023/06/01 10:27:16;;;;;;;6.13;3.75;;;;;;;;;;4981172;28;20026;-48
2023/06/01 10:29:42;;;;;;;5.45;4.20;;;;;;;;;;4981792;28;20100;-47
2023/06/01 10:32:36;;;;;;;4.45;4.05;;;;;;;;;;4982554;28;20035;-46
2023/06/01 10:35:03;;;;;;;5.22;3.33;;;;;;;;;;4983450;28;20408;-48
2023/06/01 10:37:28;;;;;;;3.80;3.50;;;;;;;;;;4979818;28;20049;-49
2023/06/01 10:40:18;;;;;;;4.65;4.20;;;;;;;;;;4978935;28;20031;-49
2023/06/01 10:42:43;;;;;;;3.78;3.45;;;;;;;;;;4980802;28;20212;-49
2023/06/01 10:45:39;;;;;;;5.50;4.20;;;;;;;;;;4984063;28;20555;-46
2023/06/01 10:48:07;;;;;;;6.30;4.28;;;;;;;;;;4980852;28;20108;-52
2023/06/01 10:50:35;;;;;;;8.10;3.88;;;;;;;;;;4982585;28;20100;-46
2023/06/01 10:53:23;;;;;;;7.30;4.45;;;;;;;;;;4984106;28;20081;-46
2023/06/01 10:56:27;;;;;;;5.68;4.18;;;;;;;;;;4981920;28;20049;-49
2023/06/01 10:59:10;;;;;;;6.43;4.32;;;;;;;;;;4987729;28;20506;-46
2023/06/01 11:01:38;;;;;;;8.50;4.03;;;;;;;;;;4981952;28;20154;-52
2023/06/01 11:04:04;;;;;;;6.05;4.13;;;;;;;;;;4991076;28;20973;-51
2023/06/01 11:06:33;;;;;;;4.35;3.83;;;;;;;;;;4985446;28;20478;-52
2023/06/01 11:09:00;;;;;;;4.95;4.00;;;;;;;;;;4982572;28;20031;-46
2023/06/01 11:11:50;;;;;;;4.43;4.00;;;;;;;;;;4980688;28;20050;-49
2023/06/01 11:14:18;;;;;;;4.50;4.05;;;;;;;;;;4984617;28;20034;-45
2023/06/01 11:16:44;;;;;;;4.45;4.05;;;;;;;;;;4987009;28;20054;-47
2023/06/01 11:19:10;;;;;;;5.53;3.97;;;;;;;;;;4985861;28;20034;-47
2023/06/01 11:21:40;;;;;;;6.07;4.15;;;;;;;;;;4984020;28;20031;-49
2023/06/01 11:24:10;;;;;;;4.28;3.88;;;;;;;;;;4983988;28;20027;-53
2023/06/01 11:26:42;;;;;;;6.28;4.28;;;;;;;;;;4983054;28;20496;-48
2023/06/01 11:29:12;;;;;;;4.75;4.28;;;;;;;;;;4981992;28;20061;-46
2023/06/01 11:31:44;;;;;;;4.85;4.35;;;;;;;;;;4986370;28;20039;-44
2023/06/01 11:34:10;;;;;;;;;;;;;;;;;;4983911;28;20054;-50
2023/06/01 11:36:37;;;;;;;5.80;4.30;;;;;;;;;;4984851;28;19925;-45
2023/06/01 11:39:06;;;;;;;6.53;4.43;;;;;;;;;;4982298;28;20050;-48
2023/06/01 11:41:32;;;;;;;4.97;4.40;;;;;;;;;;4982631;28;20150;-44
2023/06/01 11:43:57;;;;;;;12.25;5.47;;;;;;;;;;4974337;28;20067;-46
2023/06/01 11:46:23;;;;;;;8.80;4.65;;;;;;;;;;4983875;28;20038;-48
2023/06/01 11:49:04;;;;;;;7.35;4.40;;;;;;;;;;4984488;28;20041;-47
2023/06/01 11:51:36;;;;;;;12.35;4.63;;;;;;;;;;4988001;28;20038;-45
2023/06/01 11:54:03;;;;;;;5.60;4.50;;;;;;;;;;4983696;28;20057;-45
2023/06/01 11:56:34;;;;;;;4.90;4.47;;;;;;;;;;4982923;28;20046;-46
2023/06/01 11:59:08;;;;;;;5.53;4.60;;;;;;;;;;4986731;28;20092;-45
2023/06/01 12:01:34;;;;;;;5.35;4.70;;;;;;;;;;4984319;28;20399;-44
2023/06/01 12:04:02;;;;;;;6.57;4.75;;;;;;;;;;4987331;28;20033;-47
2023/06/01 12:06:27;;;;;;;10.20;4.38;;;;;;;;;;4982788;28;20352;-46
2023/06/01 12:08:56;;;;;;;9.70;4.78;;;;;;;;;;4983650;28;20034;-43
2023/06/01 12:11:28;;;;;;;8.70;4.80;;;;;;;;;;4983216;28;20121;-43
2023/06/01 12:13:57;;;;;;;14.85;4.93;;;;;;;;;;4985848;28;20038;-45
2023/06/01 12:16:25;;;;;;;6.20;4.50;;;;;;;;;;4981998;28;20043;-44
2023/06/01 12:18:51;;;;;;;12.93;4.53;;;;;;;;;;4982114;28;20031;-43
2023/06/01 12:21:17;;;;;;;7.50;4.32;;;;;;;;;;4984166;28;20050;-44
2023/06/01 12:23:51;;;;;;;11.00;4.82;;;;;;;;;;4985601;28;20038;-44
2023/06/01 12:26:17;;;;;;;9.23;5.00;;;;;;;;;;4981410;28;20138;-44
2023/06/01 12:28:54;;;;;;;7.72;4.68;;;;;;;;;;4983621;28;20121;-44
2023/06/01 12:31:21;;;;;;;8.27;4.70;;;;;;;;;;4983625;28;20161;-46
2023/06/01 12:33:48;;;;;;;6.43;5.00;;;;;;;;;;4984102;28;20029;-44
2023/06/01 12:36:31;;;;;;;7.88;4.72;;;;;;;;;;4983318;28;20388;-46
2023/06/01 12:38:58;;;;;;;7.78;5.10;;;;;;;;;;4983142;28;20034;-43
2023/06/01 12:41:24;;;;;;;8.45;4.95;;;;;;;;;;4981185;28;20030;-44
2023/06/01 12:43:51;;;;;;;9.65;4.82;;;;;;;;;;4987777;28;20030;-43
2023/06/01 12:46:27;;;;;;;10.05;5.07;;;;;;;;;;4982448;28;20061;-45
2023/06/01 12:49:10;;;;;;;10.98;5.57;;;;;;;;;;4984233;28;20439;-44
2023/06/01 12:51:36;;;;;;;14.95;5.90;;;;;;;;;;4984953;28;20042;-44
2023/06/01 12:54:01;;;;;;;15.90;7.43;;;;;;;;;;4984704;28;20117;-43
2023/06/01 12:56:26;;;;;;;14.77;7.13;;;;;;;;;;4980357;28;20098;-43
2023/06/01 12:58:52;;;;;;;20.95;8.77;;;;;;;;;;4983996;28;20029;-45
2023/06/01 13:01:17;;;;;;;30.40;10.07;;;;;;;;;;4984633;28;20034;-44
2023/06/01 13:03:43;;;;;;;18.20;7.78;;;;;;;;;;4987841;28;20522;-45
2023/06/01 13:06:08;;;;;;;26.08;8.23;;;;;;;;;;4985560;28;20129;-43
2023/06/01 13:08:34;;;;;;;15.23;7.88;;;;;;;;;;4986617;28;20030;-44
2023/06/01 13:10:59;;;;;;;17.20;7.95;;;;;;;;;;4983093;28;20037;-44
2023/06/01 13:13:25;;;;;;;16.33;7.35;;;;;;;;;;4984540;28;20476;-46
2023/06/01 13:15:50;;;;;;;20.25;7.15;;;;;;;;;;4983628;28;20112;-47
2023/06/01 13:18:16;;;;;;;22.20;7.00;;;;;;;;;;4983477;28;20058;-45
2023/06/01 13:20:42;;;;;;;17.77;8.15;;;;;;;;;;4983357;28;20030;-46
2023/06/01 13:23:09;;;;;;;29.63;8.35;;;;;;;;;;4983700;28;20034;-45
2023/06/01 13:25:34;;;;;;;20.35;7.93;;;;;;;;;;4981472;28;20030;-48
2023/06/01 13:28:00;;;;;;;19.75;7.90;;;;;;;;;;4983710;28;20089;-45
2023/06/01 13:30:28;;;;;;;16.67;8.15;;;;;;;;;;4985763;28;20038;-45
2023/06/01 13:32:54;;;;;;;18.13;6.85;;;;;;;;;;4982771;28;20104;-49
2023/06/01 13:35:19;;;;;;;16.02;6.07;;;;;;;;;;4979277;28;20062;-49
2023/06/01 13:37:45;;;;;;;13.18;6.20;;;;;;;;;;4983800;28;20053;-44
2023/06/01 13:40:10;;;;;;;10.55;6.70;;;;;;;;;;4982442;28;20026;-48
2023/06/01 13:42:36;;;;;;;9.75;6.15;;;;;;;;;;4983755;28;20042;-45
2023/06/01 13:45:01;;;;;;;12.10;6.72;;;;;;;;;;4983245;28;20109;-44
2023/06/01 13:47:27;;;;;;;12.85;7.05;;;;;;;;;;4984104;28;20041;-45
2023/06/01 13:49:52;;;;;;;6.70;5.55;;;;;;;;;;4984328;28;20038;-44
2023/06/01 13:52:18;;;;;;;8.32;5.00;;;;;;;;;;4979916;28;20039;-44
2023/06/01 13:54:44;;;;;;;8.07;5.40;;;;;;;;;;4985145;28;20471;-45
2023/06/01 13:57:10;;;;;;;7.82;4.88;;;;;;;;;;4985208;28;20053;-48
2023/06/01 13:59:36;;;;;;;7.57;4.85;;;;;;;;;;4981957;28;20046;-44
2023/06/01 14:02:04;;;;;;;15.35;5.95;;;;;;;;;;4979617;28;20072;-44
2023/06/01 14:04:30;;;;;;;11.25;5.80;;;;;;;;;;4983632;28;20035;-44
2023/06/01 14:06:56;;;;;;;8.70;5.95;;;;;;;;;;4980707;28;20046;-43
2023/06/01 14:09:22;;;;;;;11.93;5.90;;;;;;;;;;4978948;28;20422;-46
2023/06/01 14:11:47;;;;;;;10.98;6.35;;;;;;;;;;4982844;28;20043;-45
2023/06/01 14:14:13;;;;;;;16.67;7.22;;;;;;;;;;4981975;28;20030;-44
2023/06/01 14:16:38;;;;;;;10.18;7.80;;;;;;;;;;4982189;28;20526;-44
2023/06/01 14:19:04;;;;;;;11.65;7.18;;;;;;;;;;4982391;28;20065;-44
2023/06/01 14:21:30;;;;;;;23.10;7.85;;;;;;;;;;4983932;28;20041;-48
2023/06/01 14:23:57;;;;;;;11.27;7.82;;;;;;;;;;4983857;28;20037;-44
2023/06/01 14:26:22;;;;;;;11.65;7.95;;;;;;;;;;4980901;28;20050;-45
2023/06/01 14:28:48;;;;;;;15.93;9.10;;;;;;;;;;4982962;28;20018;-45
2023/06/01 14:31:13;;;;;;;11.15;8.45;;;;;;;;;;4987210;28;20038;-45
2023/06/01 14:33:39;;;;;;;15.55;9.50;;;;;;;;;;4982856;28;20435;-45
2023/06/01 14:36:05;;;;;;;9.57;8.07;;;;;;;;;;4985177;28;20551;-46
2023/06/01 14:38:30;;;;;;;10.70;8.02;;;;;;;;;;4982686;28;20101;-49
2023/06/01 14:40:56;;;;;;;7.88;6.82;;;;;;;;;;4982030;28;20035;-48
2023/06/01 14:43:22;;;;;;;7.75;6.50;;;;;;;;;;4984394;28;20496;-46
2023/06/01 14:45:47;;;;;;;8.65;7.15;;;;;;;;;;4985975;28;20510;-44